createdAt,value
2023-03-01T00:01:22.387Z,100185.23
2023-03-01T00:04:51.525Z,100188.02
2023-03-01T00:08:11.349Z,100199.90
2023-03-01T00:11:42.719Z,100199.41
2023-03-01T00:15:11.892Z,100204.91
2023-03-01T00:18:41.266Z,100212.31
2023-03-01T00:22:10.109Z,100214.92
2023-03-01T00:25:39.168Z,100218.20
2023-03-01T00:29:08.529Z,100222.69
2023-03-01T00:32:37.340Z,100226.09
2023-03-01T00:36:06.684Z,100223.48
2023-03-01T00:39:41.734Z,100228.12
2023-03-01T00:43:00.782Z,100238.22
2023-03-01T00:46:28.975Z,100246.63
2023-03-01T00:49:58.108Z,100254.20
2023-03-01T00:53:27.342Z,100264.25
2023-03-01T00:56:56.670Z,100271.66
2023-03-01T01:00:26.076Z,100274.29
2023-03-01T01:03:55.017Z,100280.35
2023-03-01T01:07:24.202Z,100286.59
2023-03-01T01:10:53.150Z,100293.53
2023-03-01T01:14:21.935Z,100293.17
2023-03-01T01:17:33.260Z,100294.79
2023-03-01T01:21:02.262Z,100298.16
2023-03-01T01:24:31.432Z,100307.19
2023-03-01T01:28:00.816Z,100318.02
2023-03-01T01:31:30.226Z,100323.38
2023-03-01T01:34:59.007Z,100335.02
2023-03-01T01:38:28.264Z,100345.77
2023-03-01T01:41:56.914Z,100353.73
2023-03-01T01:45:26.212Z,100364.09
2023-03-01T01:48:55.417Z,100367.63
2023-03-01T01:52:24.923Z,100368.66
2023-03-01T01:56:06.507Z,100374.16
2023-03-01T01:59:35.394Z,100379.02
2023-03-01T02:03:05.242Z,100382.33
2023-03-01T02:06:49.578Z,100389.14
2023-03-01T02:10:18.604Z,100397.11
2023-03-01T02:13:47.361Z,100404.00
2023-03-01T02:17:16.105Z,100410.55
2023-03-01T02:20:54.672Z,100415.70
2023-03-01T02:24:24.019Z,100427.64
2023-03-01T02:27:53.714Z,100433.70
2023-03-01T02:31:20.180Z,100435.77
2023-03-01T02:34:49.448Z,100446.77
2023-03-01T02:38:18.463Z,100452.33
2023-03-01T02:41:47.785Z,100462.52
2023-03-01T02:45:06.734Z,100461.02
2023-03-01T02:48:38.978Z,100466.11
2023-03-01T02:52:08.027Z,100466.33
2023-03-01T02:55:37.202Z,100465.96
2023-03-01T02:59:06.223Z,100468.01
2023-03-01T03:02:33.828Z,100471.40
2023-03-01T03:06:03.242Z,100477.58
2023-03-01T03:09:32.513Z,100475.31
2023-03-01T03:13:01.804Z,100481.79
2023-03-01T03:16:30.151Z,100486.73
2023-03-01T03:20:32.627Z,100488.80
2023-03-01T03:23:51.639Z,100495.45
2023-03-01T03:27:20.462Z,100500.89
2023-03-01T03:30:49.229Z,100505.14
2023-03-01T03:34:17.992Z,100517.37
2023-03-01T03:37:45.320Z,100522.27
2023-03-01T03:41:17.177Z,100525.38
2023-03-01T03:44:49.355Z,100528.70
2023-03-01T03:48:00.171Z,100530.56
2023-03-01T03:51:32.401Z,100542.03
2023-03-01T03:55:02.350Z,100550.67
2023-03-01T03:58:31.008Z,100559.24
2023-03-01T04:02:00.224Z,100561.95
2023-03-01T04:05:04.497Z,100558.60
2023-03-01T04:08:29.713Z,100563.83
2023-03-01T04:11:40.745Z,100571.83
2023-03-01T04:14:53.089Z,100577.48
2023-03-01T04:18:22.813Z,100581.48
2023-03-01T04:21:45.187Z,100583.63
2023-03-01T04:25:14.445Z,100584.27
2023-03-01T04:28:43.250Z,100591.22
2023-03-01T04:32:14.917Z,100597.65
2023-03-01T04:35:43.794Z,100594.59
2023-03-01T04:39:11.780Z,100594.30
2023-03-01T04:42:41.231Z,100597.59
2023-03-01T04:46:09.218Z,100599.63
2023-03-01T04:49:38.269Z,100599.78
2023-03-01T04:53:07.242Z,100605.19
2023-03-01T04:56:36.790Z,100610.30
2023-03-01T04:59:56.212Z,100618.71
2023-03-01T05:03:16.103Z,100632.39
2023-03-01T05:06:45.087Z,100644.45
2023-03-01T05:10:14.122Z,100651.88
2023-03-01T05:13:46.024Z,100659.58
2023-03-01T05:17:14.759Z,100669.67
2023-03-01T05:20:46.402Z,100668.21
2023-03-01T05:24:15.817Z,100672.72
2023-03-01T05:27:44.706Z,100676.13
2023-03-01T05:31:14.205Z,100676.39
2023-03-01T05:34:43.635Z,100676.08
2023-03-01T05:38:12.954Z,100682.92
2023-03-01T05:41:42.389Z,100687.36
2023-03-01T05:45:04.637Z,100695.91
2023-03-01T05:48:36.722Z,100699.11
2023-03-01T05:52:06.245Z,100705.10
2023-03-01T05:55:37.478Z,100708.98
2023-03-01T05:58:56.481Z,100716.55
2023-03-01T06:02:25.298Z,100727.63
2023-03-01T06:05:54.137Z,100731.23
2023-03-01T06:09:13.074Z,100738.64
2023-03-01T06:12:41.924Z,100738.54
2023-03-01T06:16:11.590Z,100749.14
2023-03-01T06:19:40.254Z,100749.36
2023-03-01T06:23:09.845Z,100759.90
2023-03-01T06:26:25.123Z,100775.92
2023-03-01T06:29:53.739Z,100780.23
2023-03-01T06:33:22.607Z,100788.83
2023-03-01T06:36:51.293Z,100791.70
2023-03-01T06:40:20.054Z,100798.31
2023-03-01T06:43:49.612Z,100809.40
2023-03-01T06:47:18.360Z,100826.15
2023-03-01T06:50:48.043Z,100837.57
2023-03-01T06:54:17.643Z,100850.34
2023-03-01T06:57:45.536Z,100856.30
2023-03-01T07:00:57.849Z,100859.27
2023-03-01T07:04:26.615Z,100862.02
2023-03-01T07:07:54.297Z,100863.90
2023-03-01T07:11:23.006Z,100870.96
2023-03-01T07:14:50.396Z,100877.15
2023-03-01T07:18:10.264Z,100890.45
2023-03-01T07:21:39.095Z,100898.05
2023-03-01T07:25:08.194Z,100903.40
2023-03-01T07:28:37.148Z,100905.98
2023-03-01T07:32:06.100Z,100903.94
2023-03-01T07:35:35.200Z,100905.48
2023-03-01T07:39:04.094Z,100912.21
2023-03-01T07:42:33.153Z,100916.11
2023-03-01T07:45:53.782Z,100922.24
2023-03-01T07:49:22.705Z,100923.46
2023-03-01T07:52:44.763Z,100929.15
2023-03-01T07:56:13.403Z,100933.85
2023-03-01T07:59:42.713Z,100935.09
2023-03-01T08:03:12.244Z,100929.34
2023-03-01T08:06:47.095Z,100919.92
2023-03-01T08:10:19.164Z,100917.69
2023-03-01T08:13:49.779Z,100913.84
2023-03-01T08:17:23.993Z,100923.91
2023-03-01T08:20:53.534Z,100931.80
2023-03-01T08:24:22.661Z,100931.36
2023-03-01T08:27:51.946Z,100940.17
2023-03-01T08:31:12.257Z,100948.23
2023-03-01T08:34:42.486Z,100950.64
2023-03-01T08:38:14.346Z,100958.95
2023-03-01T08:41:43.565Z,100964.65
2023-03-01T08:45:04.067Z,100963.22
2023-03-01T08:48:34.208Z,100966.56
2023-03-01T08:52:11.835Z,100966.15
2023-03-01T08:55:40.556Z,100962.45
2023-03-01T08:59:04.398Z,100971.46
2023-03-01T09:02:16.196Z,100988.44
2023-03-01T09:05:44.890Z,101006.38
2023-03-01T09:09:06.392Z,100998.88
2023-03-01T09:12:35.059Z,101003.63
2023-03-01T09:16:03.780Z,101017.77
2023-03-01T09:19:33.121Z,101004.81
2023-03-01T09:22:55.314Z,100995.56
2023-03-01T09:26:24.155Z,101009.27
2023-03-01T09:29:52.851Z,101004.48
2023-03-01T09:33:21.580Z,101004.20
2023-03-01T09:36:50.862Z,101012.89
2023-03-01T09:40:10.039Z,101014.37
2023-03-01T09:43:39.445Z,101024.52
2023-03-01T09:47:08.269Z,101037.14
2023-03-01T09:50:49.514Z,101043.10
2023-03-01T09:54:18.417Z,101060.70
2023-03-01T09:57:47.178Z,101083.22
2023-03-01T10:01:15.984Z,101092.26
2023-03-01T10:04:49.283Z,101098.33
2023-03-01T10:08:36.077Z,101108.30
2023-03-01T10:12:11.419Z,101114.58
2023-03-01T10:15:40.595Z,101131.40
2023-03-01T10:19:12.820Z,101145.71
2023-03-01T10:22:39.793Z,101149.89
2023-03-01T10:26:12.056Z,101160.31
2023-03-01T10:29:47.185Z,101172.52
2023-03-01T10:33:16.158Z,101185.33
2023-03-01T10:36:45.181Z,101192.27
2023-03-01T10:40:06.147Z,101204.73
2023-03-01T10:43:35.417Z,101208.07
2023-03-01T10:47:07.042Z,101200.54
2023-03-01T10:50:35.752Z,101196.64
2023-03-01T10:54:11.120Z,101192.49
2023-03-01T10:57:53.099Z,101192.45
2023-03-01T11:01:21.413Z,101189.77
2023-03-01T11:04:50.456Z,101184.00
2023-03-01T11:08:20.026Z,101178.91
2023-03-01T11:12:07.150Z,101177.77
2023-03-01T11:15:35.843Z,101184.09
2023-03-01T11:19:03.450Z,101177.41
2023-03-01T11:22:35.470Z,101174.77
2023-03-01T11:25:58.117Z,101183.77
2023-03-01T11:29:20.362Z,101186.40
2023-03-01T11:32:49.934Z,101196.20
2023-03-01T11:36:25.078Z,101201.50
2023-03-01T11:40:01.837Z,101211.33
2023-03-01T11:43:40.542Z,101223.34
2023-03-01T11:47:15.797Z,101233.40
2023-03-01T11:51:02.821Z,101251.13
2023-03-01T11:54:40.511Z,101275.90
2023-03-01T11:58:14.325Z,101297.20
2023-03-01T12:01:42.571Z,101308.44
2023-03-01T12:05:13.706Z,101313.02
2023-03-01T12:08:41.218Z,101318.77
2023-03-01T12:12:10.177Z,101328.77
2023-03-01T12:15:49.072Z,101329.02
2023-03-01T12:19:27.137Z,101325.65
2023-03-01T12:23:03.569Z,101329.27
2023-03-01T12:26:39.920Z,101334.44
2023-03-01T12:30:24.741Z,101337.92
2023-03-01T12:34:05.789Z,101338.06
2023-03-01T12:37:53.347Z,101339.77
2023-03-01T12:41:29.719Z,101341.54
2023-03-01T12:45:17.555Z,101354.38
2023-03-01T12:49:13.993Z,101357.64
2023-03-01T12:52:58.501Z,101362.54
2023-03-01T12:56:28.182Z,101353.71
2023-03-01T12:59:56.770Z,101357.11
2023-03-01T13:03:28.815Z,101354.36
2023-03-01T13:07:18.943Z,101355.83
2023-03-01T13:11:04.787Z,101362.58
2023-03-01T13:14:34.100Z,101369.81
2023-03-01T13:18:12.024Z,101375.45
2023-03-01T13:21:47.835Z,101381.90
2023-03-01T13:25:41.079Z,101381.45
2023-03-01T13:29:19.260Z,101392.61
2023-03-01T13:32:45.368Z,101399.36
2023-03-01T13:36:23.616Z,101403.80
2023-03-01T13:39:59.330Z,101406.33
2023-03-01T13:43:23.768Z,101409.13
2023-03-01T13:46:53.178Z,101417.23
2023-03-01T13:50:24.607Z,101427.89
2023-03-01T13:53:52.754Z,101439.78
2023-03-01T13:57:14.615Z,101443.08
2023-03-01T14:00:39.662Z,101452.13
2023-03-01T14:04:14.654Z,101456.55
2023-03-01T14:07:53.624Z,101464.79
2023-03-01T14:11:40.419Z,101467.02
2023-03-01T14:15:11.473Z,101461.12
2023-03-01T14:18:38.859Z,101466.83
2023-03-01T14:22:11.267Z,101468.38
2023-03-01T14:25:38.078Z,101468.89
2023-03-01T14:29:19.451Z,101475.23
2023-03-01T14:32:54.157Z,101484.20
2023-03-01T14:36:23.068Z,101495.39
2023-03-01T14:39:52.273Z,101498.02
2023-03-01T14:43:21.758Z,101505.65
2023-03-01T14:46:50.922Z,101503.73
2023-03-01T14:50:19.966Z,101499.10
2023-03-01T14:53:51.437Z,101505.96
2023-03-01T14:57:26.508Z,101506.89
2023-03-01T15:01:04.996Z,101508.95
2023-03-01T15:04:40.568Z,101509.52
2023-03-01T15:08:03.129Z,101511.52
2023-03-01T15:11:38.803Z,101517.75
2023-03-01T15:15:11.166Z,101517.58
2023-03-01T15:18:40.746Z,101517.76
2023-03-01T15:22:05.143Z,101520.05
2023-03-01T15:25:34.195Z,101518.70
2023-03-01T15:29:02.926Z,101515.67
2023-03-01T15:32:44.474Z,101518.84
2023-03-01T15:36:20.997Z,101526.65
2023-03-01T15:39:46.247Z,101526.21
2023-03-01T15:43:18.157Z,101527.61
2023-03-01T15:46:48.044Z,101535.02
2023-03-01T15:50:13.743Z,101538.90
2023-03-01T15:53:53.830Z,101538.35
2023-03-01T15:57:26.617Z,101546.35
2023-03-01T16:01:00.741Z,101554.93
2023-03-01T16:04:29.859Z,101554.30
2023-03-01T16:07:59.159Z,101554.45
2023-03-01T16:11:27.991Z,101548.31
2023-03-01T16:14:56.971Z,101550.91
2023-03-01T16:18:18.311Z,101550.76
2023-03-01T16:21:47.528Z,101559.35
2023-03-01T16:25:16.385Z,101566.73
2023-03-01T16:28:45.188Z,101573.33
2023-03-01T16:32:13.955Z,101583.98
2023-03-01T16:35:42.940Z,101586.39
2023-03-01T16:39:12.033Z,101582.02
2023-03-01T16:42:34.189Z,101579.41
2023-03-01T16:46:02.919Z,101583.22
2023-03-01T16:49:31.656Z,101580.20
2023-03-01T16:53:00.728Z,101583.19
2023-03-01T16:56:25.759Z,101585.90
2023-03-01T16:59:53.694Z,101584.60
2023-03-01T17:03:22.796Z,101591.30
2023-03-01T17:06:51.558Z,101603.24
2023-03-01T17:10:20.453Z,101607.58
2023-03-01T17:13:49.441Z,101608.85
2023-03-01T17:17:18.706Z,101610.36
2023-03-01T17:20:47.301Z,101618.11
2023-03-01T17:24:16.677Z,101634.89
2023-03-01T17:27:46.029Z,101645.75
2023-03-01T17:31:15.640Z,101653.73
2023-03-01T17:34:44.970Z,101658.17
2023-03-01T17:38:14.222Z,101658.95
2023-03-01T17:41:43.353Z,101667.48
2023-03-01T17:45:11.945Z,101672.85
2023-03-01T17:48:41.258Z,101673.73
2023-03-01T17:52:07.787Z,101671.04
2023-03-01T17:55:37.117Z,101667.56
2023-03-01T17:59:06.348Z,101666.34
2023-03-01T18:02:35.519Z,101668.33
2023-03-01T18:06:04.710Z,101671.13
2023-03-01T18:09:26.122Z,101675.80
2023-03-01T18:12:55.293Z,101675.47
2023-03-01T18:16:24.539Z,101684.83
2023-03-01T18:19:54.016Z,101680.79
2023-03-01T18:23:22.701Z,101683.06
2023-03-01T18:26:47.012Z,101686.91
2023-03-01T18:30:06.186Z,101682.33
2023-03-01T18:33:35.438Z,101689.94
2023-03-01T18:37:09.796Z,101687.70
2023-03-01T18:40:32.044Z,101688.84
2023-03-01T18:43:43.719Z,101693.08
2023-03-01T18:46:58.223Z,101691.48
2023-03-01T18:50:27.367Z,101692.27
2023-03-01T18:53:56.013Z,101692.61
2023-03-01T18:57:24.896Z,101689.13
2023-03-01T19:00:54.683Z,101691.98
2023-03-01T19:04:23.884Z,101710.19
2023-03-01T19:07:53.096Z,101707.08
2023-03-01T19:11:15.885Z,101713.98
2023-03-01T19:14:34.722Z,101711.55
2023-03-01T19:18:03.553Z,101710.30
2023-03-01T19:21:21.306Z,101710.65
2023-03-01T19:24:50.537Z,101712.83
2023-03-01T19:28:20.079Z,101715.72
2023-03-01T19:31:49.391Z,101717.63
2023-03-01T19:35:18.798Z,101723.92
2023-03-01T19:38:46.874Z,101727.60
2023-03-01T19:42:15.949Z,101726.95
2023-03-01T19:45:45.353Z,101730.52
2023-03-01T19:49:14.707Z,101730.31
2023-03-01T19:52:43.696Z,101719.42
2023-03-01T19:56:12.921Z,101726.60
2023-03-01T19:59:42.401Z,101729.02
2023-03-01T20:03:11.497Z,101729.20
2023-03-01T20:06:40.484Z,101726.63
2023-03-01T20:10:09.509Z,101727.56
2023-03-01T20:13:37.296Z,101731.01
2023-03-01T20:17:07.069Z,101744.16
2023-03-01T20:20:36.645Z,101740.73
2023-03-01T20:24:05.964Z,101739.88
2023-03-01T20:27:34.995Z,101742.20
2023-03-01T20:30:53.960Z,101738.46
2023-03-01T20:34:22.806Z,101745.63
2023-03-01T20:37:51.773Z,101736.82
2023-03-01T20:41:20.702Z,101743.23
2023-03-01T20:44:50.045Z,101748.67
2023-03-01T20:48:19.344Z,101749.27
2023-03-01T20:51:48.480Z,101754.27
2023-03-01T20:55:17.577Z,101749.09
2023-03-01T20:58:46.659Z,101749.48
2023-03-01T21:01:59.901Z,101744.26
2023-03-01T21:05:28.663Z,101749.67
2023-03-01T21:08:58.229Z,101749.62
2023-03-01T21:12:16.331Z,101746.94
2023-03-01T21:15:45.842Z,101746.45
2023-03-01T21:19:15.268Z,101753.28
2023-03-01T21:22:43.988Z,101752.44
2023-03-01T21:26:13.490Z,101752.15
2023-03-01T21:29:42.735Z,101754.11
2023-03-01T21:33:12.165Z,101752.94
2023-03-01T21:36:40.558Z,101755.71
2023-03-01T21:40:09.758Z,101752.58
2023-03-01T21:43:39.032Z,101756.61
2023-03-01T21:47:08.307Z,101762.23
2023-03-01T21:50:37.347Z,101762.64
2023-03-01T21:54:06.906Z,101764.19
2023-03-01T21:57:28.913Z,101756.52
2023-03-01T22:00:58.238Z,101757.80
2023-03-01T22:04:21.435Z,101758.82
2023-03-01T22:07:50.636Z,101756.22
2023-03-01T22:11:22.519Z,101752.08
2023-03-01T22:14:51.228Z,101755.14
2023-03-01T22:18:19.949Z,101757.27
2023-03-01T22:21:38.473Z,101755.02
2023-03-01T22:25:07.697Z,101746.53
2023-03-01T22:28:36.870Z,101750.98
2023-03-01T22:32:05.611Z,101754.45
2023-03-01T22:35:33.485Z,101755.77
2023-03-01T22:39:02.173Z,101756.63
2023-03-01T22:42:30.952Z,101760.24
2023-03-01T22:46:00.551Z,101757.66
2023-03-01T22:49:12.616Z,101763.23
2023-03-01T22:52:27.344Z,101765.52
2023-03-01T22:55:56.125Z,101760.22
2023-03-01T22:59:24.943Z,101762.00
2023-03-01T23:02:53.674Z,101761.48
2023-03-01T23:06:22.856Z,101757.30
2023-03-01T23:09:54.598Z,101761.91
2023-03-01T23:13:23.799Z,101764.60
2023-03-01T23:16:58.781Z,101768.64
2023-03-01T23:20:31.181Z,101769.56
2023-03-01T23:23:43.222Z,101765.88
2023-03-01T23:27:14.851Z,101765.45
2023-03-01T23:30:44.093Z,101773.25
2023-03-01T23:34:13.233Z,101773.64
2023-03-01T23:37:42.592Z,101777.98
2023-03-01T23:41:11.982Z,101777.64
2023-03-01T23:44:40.742Z,101771.29
2023-03-01T23:48:09.853Z,101766.50
2023-03-01T23:51:38.990Z,101766.34
2023-03-01T23:55:08.080Z,101763.67
2023-03-01T23:58:37.449Z,101753.39
